Time;durP1;ratioP1;P1;durP2;ratioP2;P2;SDS_P1;SDS_P2;PMS_P1;PMS_P2;Temp;Humidity;BMP_temperature;BMP_pressure;BME280_temperature;BME280_humidity;BME280_pressure;Samples;Min_cycle;Max_cycle;Signal;HPM_P1;HPM_P2
2021/10/13 00:00:21;;;;;;;19.73;10.38;;;;;;;;;;4992648;28;20477;-83
2021/10/13 00:02:49;;;;;;;19.13;8.82;;;;;;;;;;4996485;28;20092;-84
2021/10/13 00:05:15;;;;;;;17.98;8.60;;;;;;;;;;4996056;28;20088;-83
2021/10/13 00:07:40;;;;;;;16.35;8.65;;;;;;;;;;4991265;28;20114;-83
2021/10/13 00:10:06;;;;;;;18.70;8.95;;;;;;;;;;4993090;28;20447;-82
2021/10/13 00:12:33;;;;;;;23.65;9.10;;;;;;;;;;4975479;28;20077;-83
2021/10/13 00:15:00;;;;;;;22.20;9.77;;;;;;;;;;4977187;28;20068;-82
2021/10/13 00:17:25;;;;;;;22.42;9.43;;;;;;;;;;4993542;28;20101;-83
2021/10/13 00:19:53;;;;;;;18.55;9.02;;;;;;;;;;4976756;28;20519;-83
2021/10/13 00:22:18;;;;;;;19.00;9.85;;;;;;;;;;4992809;28;20026;-82
2021/10/13 00:24:44;;;;;;;21.60;9.60;;;;;;;;;;4983027;28;20041;-83
2021/10/13 00:27:09;;;;;;;20.77;9.25;;;;;;;;;;4977369;28;20386;-83
2021/10/13 00:29:36;;;;;;;21.70;9.60;;;;;;;;;;4982978;28;20243;-82
2021/10/13 00:32:04;;;;;;;22.20;9.88;;;;;;;;;;4990659;28;20034;-82
2021/10/13 00:34:33;;;;;;;17.80;8.57;;;;;;;;;;4973351;28;20022;-83
2021/10/13 00:36:59;;;;;;;18.73;9.38;;;;;;;;;;4973461;28;20496;-82
2021/10/13 00:39:24;;;;;;;23.90;11.20;;;;;;;;;;4995506;28;20034;-83
2021/10/13 00:41:50;;;;;;;23.67;10.85;;;;;;;;;;4978522;28;20335;-82
2021/10/13 00:44:16;;;;;;;21.17;10.23;;;;;;;;;;4975668;28;20345;-83
2021/10/13 00:46:41;;;;;;;24.98;10.98;;;;;;;;;;4994056;28;20033;-82
2021/10/13 00:49:07;;;;;;;25.60;10.65;;;;;;;;;;4978161;28;20136;-83
2021/10/13 00:51:33;;;;;;;24.83;11.02;;;;;;;;;;4993187;28;20026;-82
2021/10/13 00:54:00;;;;;;;22.55;10.02;;;;;;;;;;4993582;28;20493;-83
2021/10/13 00:56:26;;;;;;;23.42;10.73;;;;;;;;;;4976271;28;20418;-83
2021/10/13 00:58:54;;;;;;;21.75;10.80;;;;;;;;;;4974439;28;20366;-83
2021/10/13 01:01:24;;;;;;;23.13;10.80;;;;;;;;;;4992231;28;20038;-84
2021/10/13 01:04:15;;;;;;;27.38;12.02;;;;;;;;;;4975808;28;20097;-83
2021/10/13 01:07:03;;;;;;;25.38;11.65;;;;;;;;;;4956383;28;20302;-83
2021/10/13 01:09:53;;;;;;;20.95;10.57;;;;;;;;;;4976574;28;20469;-83
2021/10/13 01:12:32;;;;;;;22.33;10.82;;;;;;;;;;4975086;28;20100;-83
2021/10/13 01:15:32;;;;;;;21.45;10.32;;;;;;;;;;4974269;28;20121;-83
2021/10/13 01:18:13;;;;;;;30.63;11.45;;;;;;;;;;4989758;28;20053;-83
2021/10/13 01:21:02;;;;;;;24.05;10.90;;;;;;;;;;4979220;28;20030;-83
2021/10/13 01:23:40;;;;;;;22.10;10.27;;;;;;;;;;4977500;28;20041;-82
2021/10/13 01:26:26;;;;;;;20.98;9.60;;;;;;;;;;4971695;28;20129;-81
2021/10/13 01:28:56;;;;;;;19.75;9.85;;;;;;;;;;4993405;28;20033;-82
2021/10/13 01:31:25;;;;;;;21.88;9.68;;;;;;;;;;4976039;28;20049;-81
2021/10/13 01:34:01;;;;;;;19.77;10.32;;;;;;;;;;4991355;28;20367;-82
2021/10/13 01:36:39;;;;;;;21.67;9.90;;;;;;;;;;4993026;28;20021;-82
2021/10/13 01:39:06;;;;;;;18.60;9.20;;;;;;;;;;4977283;28;20030;-81
2021/10/13 01:41:35;;;;;;;18.05;8.57;;;;;;;;;;4980134;28;20022;-82
2021/10/13 01:44:03;;;;;;;17.98;9.20;;;;;;;;;;4978828;28;20042;-82
2021/10/13 01:46:29;;;;;;;22.20;9.75;;;;;;;;;;4992142;28;20033;-82
2021/10/13 01:48:57;;;;;;;17.75;8.75;;;;;;;;;;4992579;28;20033;-81
2021/10/13 01:51:25;;;;;;;18.75;9.48;;;;;;;;;;4993874;28;20110;-82
2021/10/13 01:53:52;;;;;;;27.17;9.90;;;;;;;;;;4979402;28;20026;-82
2021/10/13 01:56:21;;;;;;;18.98;8.52;;;;;;;;;;4991919;28;20441;-82
2021/10/13 01:58:49;;;;;;;18.23;9.02;;;;;;;;;;4990290;28;20026;-82
2021/10/13 02:01:21;;;;;;;19.30;8.88;;;;;;;;;;4976503;28;20126;-82
2021/10/13 02:03:49;;;;;;;21.25;9.52;;;;;;;;;;4996737;28;20033;-81
2021/10/13 02:06:16;;;;;;;19.60;9.32;;;;;;;;;;4978345;28;20042;-81
2021/10/13 02:08:46;;;;;;;20.90;9.60;;;;;;;;;;4987648;28;20026;-82
2021/10/13 02:11:12;;;;;;;21.98;8.88;;;;;;;;;;4981364;28;20041;-82
2021/10/13 02:13:40;;;;;;;19.67;9.20;;;;;;;;;;4979445;28;20030;-83
2021/10/13 02:16:06;;;;;;;18.10;9.32;;;;;;;;;;4992226;28;20037;-83
2021/10/13 02:18:36;;;;;;;19.30;9.23;;;;;;;;;;4995718;28;20025;-83
2021/10/13 02:21:05;;;;;;;18.58;9.45;;;;;;;;;;4974028;28;20114;-83
2021/10/13 02:23:33;;;;;;;21.08;10.57;;;;;;;;;;4993609;28;20036;-83
2021/10/13 02:26:04;;;;;;;24.35;10.27;;;;;;;;;;4994231;28;20109;-83
2021/10/13 02:28:42;;;;;;;23.73;9.95;;;;;;;;;;4984903;28;20022;-82
2021/10/13 02:31:09;;;;;;;20.70;9.63;;;;;;;;;;4992171;28;20028;-83
2021/10/13 02:33:36;;;;;;;22.33;10.18;;;;;;;;;;4978509;28;20173;-83
2021/10/13 02:36:02;;;;;;;22.50;10.07;;;;;;;;;;4993498;28;20053;-83
2021/10/13 02:38:28;;;;;;;19.75;8.85;;;;;;;;;;4972001;28;20053;-83
2021/10/13 02:40:54;;;;;;;17.50;8.88;;;;;;;;;;4994962;28;20030;-83
2021/10/13 02:43:19;;;;;;;19.83;9.20;;;;;;;;;;4982665;28;20532;-83
2021/10/13 02:45:53;;;;;;;18.45;9.25;;;;;;;;;;4974566;28;20033;-83
2021/10/13 02:48:24;;;;;;;18.35;8.88;;;;;;;;;;4997542;28;20375;-83
2021/10/13 02:51:00;;;;;;;19.33;8.57;;;;;;;;;;4991758;28;20137;-82
2021/10/13 02:53:35;;;;;;;20.02;8.77;;;;;;;;;;4983690;28;20053;-82
2021/10/13 02:56:19;;;;;;;24.05;8.98;;;;;;;;;;4990326;28;20014;-82
2021/10/13 02:59:01;;;;;;;17.83;9.00;;;;;;;;;;4991349;28;20037;-83
2021/10/13 03:01:49;;;;;;;17.27;9.07;;;;;;;;;;4991724;28;20560;-83
2021/10/13 03:04:20;;;;;;;18.13;8.30;;;;;;;;;;4972973;28;20718;-83
2021/10/13 03:06:53;;;;;;;15.88;8.07;;;;;;;;;;4981406;28;20049;-83
2021/10/13 03:09:21;;;;;;;17.80;8.68;;;;;;;;;;4983883;28;20049;-83
2021/10/13 03:11:50;;;;;;;16.23;8.35;;;;;;;;;;5000167;28;20045;-83
2021/10/13 03:14:21;;;;;;;15.02;8.57;;;;;;;;;;4999694;28;20026;-83
2021/10/13 03:16:48;;;;;;;19.98;9.30;;;;;;;;;;4980697;28;20465;-83
2021/10/13 03:19:14;;;;;;;17.13;8.82;;;;;;;;;;5001912;28;20473;-83
2021/10/13 03:21:40;;;;;;;18.90;9.05;;;;;;;;;;5001974;28;20057;-83
2021/10/13 03:24:07;;;;;;;17.67;9.18;;;;;;;;;;4998312;28;20030;-83
2021/10/13 03:26:32;;;;;;;19.05;8.48;;;;;;;;;;5006683;28;20039;-83
2021/10/13 03:28:58;;;;;;;17.73;8.23;;;;;;;;;;5004545;28;20038;-83
2021/10/13 03:31:24;;;;;;;15.50;8.63;;;;;;;;;;4978920;28;20022;-83
2021/10/13 03:33:50;;;;;;;15.50;8.05;;;;;;;;;;4991895;28;20049;-83
2021/10/13 03:36:16;;;;;;;15.02;8.05;;;;;;;;;;4990943;28;20037;-83
2021/10/13 03:38:41;;;;;;;16.58;8.77;;;;;;;;;;4994469;28;20034;-84
2021/10/13 03:41:06;;;;;;;17.58;7.90;;;;;;;;;;4979038;28;20282;-82
2021/10/13 03:43:32;;;;;;;17.75;8.13;;;;;;;;;;4977411;28;20573;-82
2021/10/13 03:45:57;;;;;;;21.80;8.23;;;;;;;;;;4998574;28;20555;-81
2021/10/13 03:48:24;;;;;;;16.77;8.48;;;;;;;;;;4976176;28;20466;-84
2021/10/13 03:50:49;;;;;;;17.63;8.25;;;;;;;;;;4994611;28;20022;-85
2021/10/13 03:53:15;;;;;;;16.55;8.20;;;;;;;;;;4999105;28;20041;-83
2021/10/13 03:55:40;;;;;;;16.08;7.75;;;;;;;;;;4994570;28;20030;-82
2021/10/13 03:58:06;;;;;;;16.30;7.93;;;;;;;;;;4976104;28;20109;-83
2021/10/13 04:00:31;;;;;;;25.77;9.27;;;;;;;;;;4993240;28;20026;-83
2021/10/13 04:02:57;;;;;;;17.00;7.80;;;;;;;;;;4974022;28;20114;-82
2021/10/13 04:05:22;;;;;;;13.30;7.55;;;;;;;;;;4990787;28;20029;-82
2021/10/13 04:07:47;;;;;;;14.70;7.65;;;;;;;;;;4991409;28;20034;-82
2021/10/13 04:10:17;;;;;;;16.83;8.38;;;;;;;;;;4990006;28;20026;-83
2021/10/13 04:12:45;;;;;;;15.55;7.90;;;;;;;;;;4974240;28;20046;-82
2021/10/13 04:15:11;;;;;;;16.38;8.18;;;;;;;;;;4997663;28;20034;-83
2021/10/13 04:17:37;;;;;;;19.73;8.68;;;;;;;;;;4993830;28;20035;-83
2021/10/13 04:20:05;;;;;;;21.75;8.93;;;;;;;;;;4993945;28;20045;-83
2021/10/13 04:22:33;;;;;;;19.48;8.88;;;;;;;;;;4992791;28;20030;-82
2021/10/13 04:25:00;;;;;;;19.15;8.68;;;;;;;;;;4971784;28;20338;-82
2021/10/13 04:27:26;;;;;;;21.33;9.75;;;;;;;;;;4986784;28;20030;-82
2021/10/13 04:29:51;;;;;;;19.15;9.02;;;;;;;;;;4975745;28;20110;-82
2021/10/13 04:32:20;;;;;;;22.70;10.00;;;;;;;;;;4990769;28;20479;-82
2021/10/13 04:34:49;;;;;;;17.90;8.25;;;;;;;;;;4992058;28;20022;-83
2021/10/13 04:37:18;;;;;;;18.30;8.68;;;;;;;;;;4978652;28;20136;-83
2021/10/13 04:39:43;;;;;;;15.68;8.63;;;;;;;;;;4978640;28;20030;-82
2021/10/13 04:42:09;;;;;;;16.27;8.05;;;;;;;;;;4981443;28;20490;-83
2021/10/13 04:44:34;;;;;;;15.45;8.65;;;;;;;;;;4995707;28;20052;-83
2021/10/13 04:47:00;;;;;;;17.00;9.20;;;;;;;;;;4994034;28;20027;-82
2021/10/13 04:49:25;;;;;;;23.38;10.60;;;;;;;;;;4990176;28;20022;-82
2021/10/13 04:51:53;;;;;;;17.70;10.18;;;;;;;;;;4997804;28;20029;-83
2021/10/13 04:54:19;;;;;;;17.83;9.80;;;;;;;;;;4976094;28;20029;-82
2021/10/13 04:56:45;;;;;;;22.35;11.70;;;;;;;;;;4995595;28;20022;-82
2021/10/13 04:59:10;;;;;;;22.33;9.55;;;;;;;;;;4980649;28;20442;-82
2021/10/13 05:01:36;;;;;;;18.60;10.48;;;;;;;;;;4996040;28;20035;-84
2021/10/13 05:04:01;;;;;;;18.98;9.30;;;;;;;;;;5001467;28;20074;-85
2021/10/13 05:06:26;;;;;;;17.35;9.00;;;;;;;;;;4996783;28;20626;-84
2021/10/13 05:08:52;;;;;;;17.73;9.30;;;;;;;;;;4994431;28;20026;-82
2021/10/13 05:11:17;;;;;;;16.70;8.73;;;;;;;;;;5002734;28;20034;-81
2021/10/13 05:13:45;;;;;;;22.70;9.77;;;;;;;;;;4994210;28;20505;-81
2021/10/13 05:16:11;;;;;;;19.13;8.88;;;;;;;;;;4998813;28;20525;-80
2021/10/13 05:18:36;;;;;;;18.35;8.80;;;;;;;;;;4983708;28;20142;-82
2021/10/13 05:21:02;;;;;;;18.70;9.05;;;;;;;;;;4983273;28;20026;-81
2021/10/13 05:23:28;;;;;;;20.95;10.10;;;;;;;;;;4981727;28;20133;-80
2021/10/13 05:25:55;;;;;;;19.38;10.50;;;;;;;;;;4981321;28;20490;-81
2021/10/13 05:28:21;;;;;;;21.58;10.95;;;;;;;;;;4997863;28;20053;-80
2021/10/13 05:30:49;;;;;;;21.10;10.60;;;;;;;;;;5002116;28;20026;-80
2021/10/13 05:33:16;;;;;;;21.48;11.20;;;;;;;;;;5000506;28;20022;-83
2021/10/13 05:35:44;;;;;;;18.05;9.52;;;;;;;;;;4993616;28;20034;-82
2021/10/13 05:38:09;;;;;;;20.08;10.23;;;;;;;;;;4980768;28;20030;-80
2021/10/13 05:40:35;;;;;;;20.17;10.35;;;;;;;;;;4993595;28;20044;-81
2021/10/13 05:43:00;;;;;;;22.70;10.95;;;;;;;;;;4992735;28;20493;-81
2021/10/13 05:45:26;;;;;;;24.08;11.48;;;;;;;;;;4983371;28;20045;-82
2021/10/13 05:47:51;;;;;;;20.73;10.75;;;;;;;;;;4999930;28;20442;-81
2021/10/13 05:50:17;;;;;;;29.13;14.80;;;;;;;;;;4996318;28;20089;-80
2021/10/13 05:52:42;;;;;;;22.98;12.50;;;;;;;;;;5011313;28;20030;-80
2021/10/13 05:55:08;;;;;;;18.95;10.43;;;;;;;;;;5000305;28;20030;-82
2021/10/13 05:57:33;;;;;;;18.80;10.63;;;;;;;;;;4993810;28;20045;-81
2021/10/13 05:59:59;;;;;;;16.67;4.88;;;;;;;;;;4992559;28;20513;-79
2021/10/13 06:02:27;;;;;;;17.90;6.47;;;;;;;;;;4979641;28;20464;-80
2021/10/13 06:04:53;;;;;;;16.50;8.25;;;;;;;;;;4994971;28;20040;-81
2021/10/13 06:07:18;;;;;;;18.08;9.35;;;;;;;;;;4997648;28;20034;-80
2021/10/13 06:09:46;;;;;;;20.77;9.57;;;;;;;;;;4995852;28;20037;-80
2021/10/13 06:12:12;;;;;;;17.83;9.57;;;;;;;;;;4996255;28;20048;-81
2021/10/13 06:14:37;;;;;;;17.05;9.30;;;;;;;;;;4997589;28;20531;-79
2021/10/13 06:17:06;;;;;;;17.73;9.98;;;;;;;;;;4995763;28;20023;-80
2021/10/13 06:19:31;;;;;;;21.50;10.82;;;;;;;;;;4992539;28;20056;-80
2021/10/13 06:21:56;;;;;;;25.77;11.10;;;;;;;;;;4994425;28;20021;-80
2021/10/13 06:24:22;;;;;;;25.65;12.30;;;;;;;;;;4994755;28;20033;-80
2021/10/13 06:26:47;;;;;;;21.83;11.23;;;;;;;;;;4993641;28;20034;-80
2021/10/13 06:29:15;;;;;;;22.38;10.38;;;;;;;;;;4993831;28;20034;-82
2021/10/13 06:31:41;;;;;;;18.95;9.05;;;;;;;;;;4993731;28;20030;-80
2021/10/13 06:34:06;;;;;;;25.42;11.30;;;;;;;;;;4978126;28;20117;-81
2021/10/13 06:36:32;;;;;;;23.10;10.85;;;;;;;;;;4990076;28;20022;-80
2021/10/13 06:38:57;;;;;;;21.98;11.05;;;;;;;;;;4975080;28;20037;-82
2021/10/13 06:41:26;;;;;;;22.52;11.35;;;;;;;;;;5000419;28;20045;-81
2021/10/13 06:43:52;;;;;;;20.73;10.47;;;;;;;;;;4992050;28;20082;-80
2021/10/13 06:46:17;;;;;;;24.98;10.90;;;;;;;;;;4998893;28;20301;-78
2021/10/13 06:48:42;;;;;;;21.80;10.90;;;;;;;;;;5010280;28;20060;-80
2021/10/13 06:51:08;;;;;;;21.65;10.50;;;;;;;;;;4996714;28;20030;-80
2021/10/13 06:53:33;;;;;;;23.17;9.80;;;;;;;;;;4993535;28;20034;-80
2021/10/13 06:55:59;;;;;;;18.95;9.90;;;;;;;;;;4979265;28;20040;-82
2021/10/13 06:58:27;;;;;;;20.17;10.25;;;;;;;;;;4982948;28;20088;-80
2021/10/13 07:00:52;;;;;;;19.15;9.73;;;;;;;;;;4977086;28;20034;-80
2021/10/13 07:03:18;;;;;;;22.60;10.68;;;;;;;;;;4997997;28;20030;-80
2021/10/13 07:05:43;;;;;;;20.25;10.95;;;;;;;;;;4994790;28;20033;-80
2021/10/13 07:08:09;;;;;;;24.08;11.40;;;;;;;;;;4992331;28;20042;-81
2021/10/13 07:10:35;;;;;;;22.63;10.52;;;;;;;;;;4995465;28;20026;-79
2021/10/13 07:13:00;;;;;;;24.88;12.18;;;;;;;;;;4995580;28;20022;-80
2021/10/13 07:15:26;;;;;;;23.00;12.05;;;;;;;;;;4994608;28;20053;-82
2021/10/13 07:17:51;;;;;;;19.98;10.98;;;;;;;;;;4993573;28;20079;-81
2021/10/13 07:20:17;;;;;;;18.48;9.93;;;;;;;;;;4993359;28;20040;-81
2021/10/13 07:22:42;;;;;;;17.23;9.38;;;;;;;;;;4998188;28;20038;-81
2021/10/13 07:25:11;;;;;;;18.35;9.70;;;;;;;;;;4976131;28;20038;-81
2021/10/13 07:27:37;;;;;;;18.85;8.40;;;;;;;;;;4991515;28;20540;-81
2021/10/13 07:30:07;;;;;;;18.85;8.63;;;;;;;;;;5000087;28;20038;-81
2021/10/13 07:32:35;;;;;;;17.63;8.10;;;;;;;;;;4975629;28;20037;-82
2021/10/13 07:35:01;;;;;;;14.50;7.90;;;;;;;;;;4973364;28;20033;-80
2021/10/13 07:37:27;;;;;;;14.25;6.85;;;;;;;;;;4973370;28;20026;-82
2021/10/13 07:39:54;;;;;;;14.68;7.20;;;;;;;;;;4995436;28;20022;-81
2021/10/13 07:42:19;;;;;;;15.57;7.05;;;;;;;;;;4993465;28;20034;-82
2021/10/13 07:44:45;;;;;;;13.85;6.72;;;;;;;;;;4994332;28;20029;-79
2021/10/13 07:47:11;;;;;;;12.82;6.65;;;;;;;;;;4992684;28;20025;-80
2021/10/13 07:49:38;;;;;;;14.75;7.10;;;;;;;;;;4993627;28;20030;-81
2021/10/13 07:52:04;;;;;;;12.82;7.47;;;;;;;;;;4994642;28;20259;-81
2021/10/13 07:54:29;;;;;;;15.13;6.90;;;;;;;;;;4994207;28;20048;-82
2021/10/13 07:56:55;;;;;;;14.93;7.57;;;;;;;;;;4993237;28;20065;-82
2021/10/13 07:59:20;;;;;;;12.35;6.63;;;;;;;;;;4977210;28;20173;-79
2021/10/13 08:01:46;;;;;;;16.27;6.72;;;;;;;;;;4994578;28;20027;-80
2021/10/13 08:04:11;;;;;;;19.63;7.20;;;;;;;;;;4995450;28;20037;-81
2021/10/13 08:06:37;;;;;;;15.88;7.22;;;;;;;;;;4993449;28;20027;-81
2021/10/13 08:09:02;;;;;;;11.18;6.57;;;;;;;;;;4993433;28;20153;-80
2021/10/13 08:11:28;;;;;;;12.23;5.80;;;;;;;;;;4995551;28;20090;-81
2021/10/13 08:13:53;;;;;;;13.80;6.53;;;;;;;;;;4979197;28;20034;-81
2021/10/13 08:16:19;;;;;;;19.42;8.60;;;;;;;;;;4997667;28;20034;-81
2021/10/13 08:18:44;;;;;;;16.13;7.32;;;;;;;;;;4984190;28;20034;-83
2021/10/13 08:21:10;;;;;;;14.02;6.57;;;;;;;;;;5002147;28;20268;-81
2021/10/13 08:23:36;;;;;;;17.58;8.70;;;;;;;;;;4980173;28;20030;-80
2021/10/13 08:26:02;;;;;;;19.50;9.35;;;;;;;;;;5004788;28;20022;-80
2021/10/13 08:28:28;;;;;;;14.57;7.68;;;;;;;;;;4997680;28;20457;-79
2021/10/13 08:30:57;;;;;;;13.95;7.80;;;;;;;;;;5000619;28;20390;-81
2021/10/13 08:33:23;;;;;;;14.23;7.97;;;;;;;;;;5000185;28;20029;-82
2021/10/13 08:35:49;;;;;;;13.68;7.82;;;;;;;;;;4997622;28;20325;-79
2021/10/13 08:38:14;;;;;;;11.77;6.22;;;;;;;;;;4995391;28;20022;-80
2021/10/13 08:40:41;;;;;;;13.00;6.75;;;;;;;;;;4981060;28;20026;-79
2021/10/13 08:43:07;;;;;;;16.35;6.82;;;;;;;;;;4980944;28;20058;-81
2021/10/13 08:45:34;;;;;;;13.60;6.97;;;;;;;;;;4981493;28;20061;-82
2021/10/13 08:48:03;;;;;;;14.88;6.20;;;;;;;;;;4980479;28;20042;-79
2021/10/13 08:50:32;;;;;;;14.77;6.63;;;;;;;;;;4994375;28;20432;-80
2021/10/13 08:53:11;;;;;;;12.77;6.33;;;;;;;;;;4982039;28;20030;-79
2021/10/13 08:55:39;;;;;;;17.10;7.60;;;;;;;;;;4996192;28;20038;-81
2021/10/13 08:58:37;;;;;;;9.32;4.85;;;;;;;;;;4981100;28;20032;-79
2021/10/13 09:01:03;;;;;;;8.43;4.40;;;;;;;;;;4999026;28;20048;-81
2021/10/13 09:03:28;;;;;;;9.70;4.63;;;;;;;;;;5003361;28;20058;-80
2021/10/13 09:05:54;;;;;;;8.35;4.93;;;;;;;;;;4997506;28;20018;-81
2021/10/13 09:08:22;;;;;;;12.32;5.28;;;;;;;;;;4998208;28;20038;-79
2021/10/13 09:10:47;;;;;;;8.38;4.93;;;;;;;;;;5002641;28;20034;-80
2021/10/13 09:13:16;;;;;;;10.07;4.78;;;;;;;;;;4997350;28;20053;-80
2021/10/13 09:15:53;;;;;;;13.48;5.28;;;;;;;;;;4985210;28;20045;-79
2021/10/13 09:18:23;;;;;;;8.85;5.45;;;;;;;;;;4984566;28;20106;-79
2021/10/13 09:20:51;;;;;;;10.05;5.60;;;;;;;;;;4983337;28;20068;-80
2021/10/13 09:23:31;;;;;;;11.15;5.82;;;;;;;;;;4994428;28;20026;-80
2021/10/13 09:26:10;;;;;;;10.13;6.25;;;;;;;;;;5000502;28;20322;-80
2021/10/13 09:28:36;;;;;;;9.27;5.55;;;;;;;;;;5003540;28;20529;-80
2021/10/13 09:31:22;;;;;;;11.57;5.65;;;;;;;;;;5002599;28;20045;-82
2021/10/13 09:33:58;;;;;;;11.40;6.20;;;;;;;;;;5000633;28;20482;-79
2021/10/13 09:36:37;;;;;;;8.95;4.80;;;;;;;;;;4998529;28;20037;-81
2021/10/13 09:39:04;;;;;;;6.43;4.43;;;;;;;;;;5001981;28;20030;-82
2021/10/13 09:41:29;;;;;;;8.82;5.22;;;;;;;;;;4997538;28;20022;-80
2021/10/13 09:44:12;;;;;;;8.82;3.90;;;;;;;;;;4997147;28;20498;-80
2021/10/13 09:46:38;;;;;;;8.07;3.95;;;;;;;;;;5000097;28;20086;-80
2021/10/13 09:49:03;;;;;;;10.52;3.53;;;;;;;;;;4995415;28;20067;-80
2021/10/13 09:51:35;;;;;;;9.45;3.45;;;;;;;;;;4995829;28;20057;-82
2021/10/13 09:54:07;;;;;;;6.70;3.83;;;;;;;;;;4980055;28;20030;-80
2021/10/13 09:56:38;;;;;;;5.47;3.00;;;;;;;;;;4993417;28;20117;-81
2021/10/13 09:59:18;;;;;;;6.05;3.00;;;;;;;;;;4992937;28;20026;-80
2021/10/13 10:01:49;;;;;;;6.80;3.20;;;;;;;;;;4977668;28;20023;-80
2021/10/13 10:04:20;;;;;;;5.78;3.20;;;;;;;;;;4993207;28;20030;-81
2021/10/13 10:06:50;;;;;;;6.32;2.88;;;;;;;;;;5011071;28;20034;-79
2021/10/13 10:09:18;;;;;;;6.05;3.55;;;;;;;;;;4999117;28;20030;-81
2021/10/13 10:11:44;;;;;;;6.35;3.08;;;;;;;;;;4992906;28;20109;-80
2021/10/13 10:14:35;;;;;;;4.28;2.63;;;;;;;;;;4998669;28;20045;-81
2021/10/13 10:17:05;;;;;;;4.65;2.60;;;;;;;;;;4981200;28;20406;-80
2021/10/13 10:19:38;;;;;;;5.82;3.40;;;;;;;;;;4982843;28;20133;-82
2021/10/13 10:22:10;;;;;;;6.63;3.70;;;;;;;;;;4995149;28;20081;-81
2021/10/13 10:24:37;;;;;;;6.18;3.30;;;;;;;;;;5001103;28;20136;-82
2021/10/13 10:27:23;;;;;;;5.28;2.70;;;;;;;;;;4995344;28;20026;-81
2021/10/13 10:30:16;;;;;;;6.65;2.90;;;;;;;;;;4998817;28;20165;-80
2021/10/13 10:32:44;;;;;;;5.50;3.17;;;;;;;;;;4970971;28;20045;-80
2021/10/13 10:35:14;;;;;;;7.57;3.40;;;;;;;;;;4996460;28;20065;-82
2021/10/13 10:37:47;;;;;;;8.52;5.03;;;;;;;;;;4989590;28;20113;-81
2021/10/13 10:40:33;;;;;;;12.48;6.60;;;;;;;;;;4994514;28;20026;-82
2021/10/13 10:43:07;;;;;;;5.60;3.92;;;;;;;;;;4995258;28;20091;-82
2021/10/13 10:45:47;;;;;;;9.55;5.75;;;;;;;;;;4976361;28;20092;-81
2021/10/13 10:48:16;;;;;;;6.15;3.83;;;;;;;;;;4994072;28;20034;-79
2021/10/13 10:50:47;;;;;;;6.00;3.97;;;;;;;;;;4993519;28;20022;-80
2021/10/13 10:53:21;;;;;;;7.22;3.20;;;;;;;;;;4999640;28;20137;-79
2021/10/13 10:55:49;;;;;;;5.13;3.40;;;;;;;;;;4998275;28;20120;-79
2021/10/13 10:58:22;;;;;;;5.00;3.08;;;;;;;;;;4996738;28;20090;-79
2021/10/13 11:01:05;;;;;;;5.57;2.40;;;;;;;;;;4995216;28;20037;-79
2021/10/13 11:03:36;;;;;;;6.75;3.50;;;;;;;;;;4978624;28;20509;-79
2021/10/13 11:06:16;;;;;;;10.32;4.28;;;;;;;;;;4999217;28;20021;-81
2021/10/13 11:09:12;;;;;;;10.43;5.03;;;;;;;;;;4995230;28;20042;-79
2021/10/13 11:11:45;;;;;;;8.05;4.43;;;;;;;;;;4992649;28;20506;-80
2021/10/13 11:14:21;;;;;;;10.77;5.55;;;;;;;;;;4987671;28;21017;-80
2021/10/13 11:17:08;;;;;;;7.53;4.80;;;;;;;;;;4999483;28;20034;-81
2021/10/13 11:19:35;;;;;;;14.35;5.10;;;;;;;;;;4981218;28;20036;-80
2021/10/13 11:22:04;;;;;;;11.77;4.75;;;;;;;;;;4996876;28;20030;-80
2021/10/13 11:24:32;;;;;;;8.70;4.80;;;;;;;;;;4984408;28;20367;-79
2021/10/13 11:26:57;;;;;;;8.68;4.63;;;;;;;;;;4996303;28;20031;-79
2021/10/13 11:29:26;;;;;;;10.32;4.65;;;;;;;;;;4999122;28;20037;-80
2021/10/13 11:32:12;;;;;;;7.65;4.47;;;;;;;;;;4994746;28;20041;-79
2021/10/13 11:34:43;;;;;;;12.10;4.72;;;;;;;;;;4982786;28;20406;-80
2021/10/13 11:37:09;;;;;;;5.57;3.90;;;;;;;;;;4980453;28;20023;-80
2021/10/13 11:39:37;;;;;;;7.75;4.78;;;;;;;;;;4980264;28;20508;-80
2021/10/13 11:42:03;;;;;;;6.70;4.45;;;;;;;;;;4998211;28;20037;-80
2021/10/13 11:44:30;;;;;;;7.88;4.95;;;;;;;;;;5001992;28;20394;-81
2021/10/13 11:47:01;;;;;;;10.82;5.43;;;;;;;;;;5001085;28;20022;-81
2021/10/13 11:49:30;;;;;;;8.23;4.30;;;;;;;;;;4986116;28;20045;-81
2021/10/13 11:52:14;;;;;;;9.73;4.65;;;;;;;;;;5006426;28;20449;-79
2021/10/13 11:54:41;;;;;;;7.78;4.82;;;;;;;;;;4984004;28;20033;-81
2021/10/13 11:57:07;;;;;;;8.98;4.20;;;;;;;;;;4986188;28;21013;-79
2021/10/13 11:59:36;;;;;;;6.72;4.07;;;;;;;;;;5001650;28;20116;-80
2021/10/13 12:02:28;;;;;;;8.15;4.35;;;;;;;;;;4988970;28;20101;-80
2021/10/13 12:04:54;;;;;;;6.95;3.67;;;;;;;;;;4997255;28;20034;-79
2021/10/13 12:07:24;;;;;;;5.65;3.17;;;;;;;;;;5002582;28;20026;-80
2021/10/13 12:09:59;;;;;;;8.60;3.20;;;;;;;;;;5004123;28;20034;-80
2021/10/13 12:12:28;;;;;;;4.00;2.50;;;;;;;;;;4980996;28;20026;-80
2021/10/13 12:14:54;;;;;;;6.93;2.45;;;;;;;;;;4986363;28;20034;-78
2021/10/13 12:17:35;;;;;;;4.68;2.47;;;;;;;;;;5001362;28;20424;-81
2021/10/13 12:20:02;;;;;;;4.22;2.65;;;;;;;;;;4997161;28;20110;-81
2021/10/13 12:22:44;;;;;;;7.03;3.17;;;;;;;;;;4998979;28;20084;-78
2021/10/13 12:25:34;;;;;;;4.45;2.85;;;;;;;;;;4983038;28;20073;-79
2021/10/13 12:28:00;;;;;;;5.10;2.97;;;;;;;;;;5005559;28;20454;-81
2021/10/13 12:30:36;;;;;;;6.63;3.03;;;;;;;;;;4986874;28;20026;-79
2021/10/13 12:33:04;;;;;;;5.05;2.75;;;;;;;;;;4996219;28;20436;-80
2021/10/13 12:35:30;;;;;;;6.82;3.08;;;;;;;;;;4983452;28;20124;-80
2021/10/13 12:37:56;;;;;;;6.32;2.80;;;;;;;;;;4999112;28;20106;-79
2021/10/13 12:40:21;;;;;;;6.65;2.90;;;;;;;;;;4997532;28;20112;-79
2021/10/13 12:42:47;;;;;;;10.88;3.70;;;;;;;;;;4999689;28;20561;-80
2021/10/13 12:45:12;;;;;;;9.05;3.97;;;;;;;;;;4998715;28;20117;-80
2021/10/13 12:47:38;;;;;;;9.52;4.45;;;;;;;;;;4988924;28;20058;-81
2021/10/13 12:50:13;;;;;;;6.55;4.00;;;;;;;;;;4987343;28;20036;-81
2021/10/13 12:52:40;;;;;;;7.68;3.72;;;;;;;;;;5008632;28;20033;-81
2021/10/13 12:55:05;;;;;;;6.03;3.40;;;;;;;;;;5007746;28;20034;-82
2021/10/13 12:57:31;;;;;;;7.88;4.70;;;;;;;;;;5001904;28;20679;-81
2021/10/13 12:59:58;;;;;;;7.30;3.85;;;;;;;;;;4998498;28;20036;-80
2021/10/13 13:02:24;;;;;;;6.57;2.83;;;;;;;;;;5002079;28;20063;-80
2021/10/13 13:04:50;;;;;;;6.68;3.03;;;;;;;;;;4998887;28;20037;-81
2021/10/13 13:07:16;;;;;;;5.70;3.28;;;;;;;;;;4980243;28;20041;-81
2021/10/13 13:09:42;;;;;;;5.82;2.85;;;;;;;;;;5002045;28;20080;-81
2021/10/13 13:12:09;;;;;;;4.30;2.63;;;;;;;;;;4982692;28;20487;-82
2021/10/13 13:14:36;;;;;;;5.50;2.40;;;;;;;;;;4992997;28;20526;-82
2021/10/13 13:17:04;;;;;;;3.70;1.70;;;;;;;;;;4999874;28;20034;-79
2021/10/13 13:19:34;;;;;;;2.50;1.92;;;;;;;;;;5003911;28;20030;-82
2021/10/13 13:22:00;;;;;;;4.07;2.10;;;;;;;;;;4980428;28;20270;-79
2021/10/13 13:24:25;;;;;;;5.63;2.13;;;;;;;;;;4979270;28;20026;-79
2021/10/13 13:26:51;;;;;;;3.75;2.00;;;;;;;;;;5000284;28;20026;-79
2021/10/13 13:29:17;;;;;;;5.10;2.28;;;;;;;;;;4996386;28;20309;-80
2021/10/13 13:31:44;;;;;;;3.35;1.80;;;;;;;;;;4994549;28;20026;-81
2021/10/13 13:34:10;;;;;;;5.57;2.40;;;;;;;;;;5000809;28;20045;-82
2021/10/13 13:36:35;;;;;;;3.17;1.70;;;;;;;;;;4990821;28;20033;-81
2021/10/13 13:39:01;;;;;;;3.30;2.08;;;;;;;;;;5013031;28;20049;-80
2021/10/13 13:41:26;;;;;;;3.42;2.25;;;;;;;;;;5012409;28;20026;-79
2021/10/13 13:43:51;;;;;;;3.05;1.58;;;;;;;;;;5013731;28;20026;-80
2021/10/13 13:46:19;;;;;;;3.78;2.33;;;;;;;;;;4998835;28;20519;-81
2021/10/13 13:48:46;;;;;;;4.60;1.70;;;;;;;;;;5016680;28;20034;-80
2021/10/13 13:51:12;;;;;;;4.05;1.75;;;;;;;;;;5007655;28;20044;-79
2021/10/13 13:53:38;;;;;;;3.45;1.65;;;;;;;;;;4992154;28;20096;-81
2021/10/13 13:56:04;;;;;;;5.07;1.70;;;;;;;;;;4994592;28;20030;-81
2021/10/13 13:58:30;;;;;;;3.25;1.40;;;;;;;;;;4976682;28;20046;-81
2021/10/13 14:00:55;;;;;;;2.15;1.02;;;;;;;;;;4975897;28;20411;-81
2021/10/13 14:03:22;;;;;;;2.42;0.85;;;;;;;;;;4990121;28;20449;-82
2021/10/13 14:05:47;;;;;;;2.10;1.00;;;;;;;;;;4989344;28;20022;-82
2021/10/13 14:08:13;;;;;;;2.53;1.23;;;;;;;;;;4990651;28;20030;-83
2021/10/13 14:10:38;;;;;;;5.63;1.90;;;;;;;;;;4991837;28;20034;-80
2021/10/13 14:13:04;;;;;;;1.77;1.10;;;;;;;;;;4995024;28;20430;-81
2021/10/13 14:15:30;;;;;;;3.35;1.30;;;;;;;;;;4982640;28;20048;-81
2021/10/13 14:17:58;;;;;;;3.40;1.35;;;;;;;;;;4976204;28;20026;-81
2021/10/13 14:20:24;;;;;;;1.95;1.02;;;;;;;;;;5003080;28;20046;-81
2021/10/13 14:22:49;;;;;;;4.20;1.20;;;;;;;;;;5002506;28;20026;-83
2021/10/13 14:25:15;;;;;;;8.25;3.53;;;;;;;;;;5004945;28;20022;-80
2021/10/13 14:27:40;;;;;;;4.95;2.50;;;;;;;;;;4989566;28;20430;-79
2021/10/13 14:30:06;;;;;;;6.65;2.08;;;;;;;;;;5005099;28;20072;-80
2021/10/13 14:32:32;;;;;;;4.88;2.55;;;;;;;;;;4990623;28;20036;-81
2021/10/13 14:34:57;;;;;;;4.63;2.00;;;;;;;;;;5000593;28;20030;-79
2021/10/13 14:37:23;;;;;;;2.42;1.33;;;;;;;;;;4980254;28;20486;-79
2021/10/13 14:39:51;;;;;;;2.03;1.40;;;;;;;;;;5001792;28;20066;-81